Time;durP1;ratioP1;P1;durP2;ratioP2;P2;SDS_P1;SDS_P2;PMS_P1;PMS_P2;Temp;Humidity;BMP_temperature;BMP_pressure;BME280_temperature;BME280_humidity;BME280_pressure;Samples;Min_cycle;Max_cycle;Signal;HPM_P1;HPM_P2
2023/05/13 00:00:01;;;;;;;19.23;7.85;;;;;;;12.90;60.64;101339.28;5073446;28;20021;-84
2023/05/13 00:02:26;;;;;;;13.73;7.38;;;;;;;12.97;60.82;101354.03;5071698;28;20468;-82
2023/05/13 00:04:52;;;;;;;17.88;6.65;;;;;;;12.86;61.25;101342.38;5071200;28;20051;-82
2023/05/13 00:07:17;;;;;;;14.38;6.40;;;;;;;12.90;61.58;101347.38;5071393;28;20023;-86
2023/05/13 00:09:43;;;;;;;19.33;6.57;;;;;;;12.67;61.84;101298.91;5071915;28;20426;-81
2023/05/13 00:12:08;;;;;;;18.05;7.05;;;;;;;12.90;62.25;101346.53;5072135;28;20399;-82
2023/05/13 00:14:34;;;;;;;14.65;6.50;;;;;;;12.85;61.77;101341.50;5072661;28;20020;-84
2023/05/13 00:17:01;;;;;;;14.20;7.05;;;;;;;12.66;62.34;101313.41;5072535;28;20029;-82
2023/05/13 00:19:26;;;;;;;13.23;5.57;;;;;;;12.62;61.89;101312.78;5073991;28;20028;-81
2023/05/13 00:21:52;;;;;;;17.25;5.18;;;;;;;12.57;61.71;101307.72;5074048;28;20161;-80
2023/05/13 00:24:17;;;;;;;12.13;6.05;;;;;;;12.75;61.44;101339.66;5078327;28;20033;-79
2023/05/13 00:26:42;;;;;;;16.25;5.78;;;;;;;12.68;62.16;101327.63;5077134;28;20059;-83
2023/05/13 00:29:08;;;;;;;23.02;7.53;;;;;;;12.71;62.11;101344.44;5073495;28;20066;-81
2023/05/13 00:31:33;;;;;;;14.82;6.80;;;;;;;12.62;61.99;101350.56;5073115;28;20031;-81
2023/05/13 00:33:59;;;;;;;22.15;6.75;;;;;;;12.62;62.05;101350.56;5073378;28;20052;-82
2023/05/13 00:36:26;;;;;;;13.18;5.35;;;;;;;12.62;61.55;101361.34;5072952;28;20025;-83
2023/05/13 00:38:52;;;;;;;8.55;5.70;;;;;;;12.44;61.45;101331.28;5071015;28;20503;-82
2023/05/13 00:41:17;;;;;;;9.85;5.15;;;;;;;12.34;60.91;101324.00;5072286;28;20063;-82
2023/05/13 00:43:43;;;;;;;12.65;4.95;;;;;;;12.20;61.24;101308.06;5072888;28;20401;-82
2023/05/13 00:46:08;;;;;;;14.55;6.07;;;;;;;12.31;61.38;101326.94;5084005;28;20028;-82
2023/05/13 00:48:34;;;;;;;16.75;6.35;;;;;;;12.30;61.74;101339.56;5074394;28;20029;-83
2023/05/13 00:50:59;;;;;;;11.60;6.30;;;;;;;12.32;62.51;101343.00;5078915;28;20029;-84
2023/05/13 00:53:25;;;;;;;8.10;5.13;;;;;;;12.27;62.60;101333.53;5082783;28;20037;-81
2023/05/13 00:55:50;;;;;;;12.07;6.43;;;;;;;12.22;62.08;101325.81;5076973;28;20021;-84
2023/05/13 00:58:16;;;;;;;12.55;6.55;;;;;;;12.31;62.60;101345.81;5071324;28;20040;-83
2023/05/13 01:00:56;;;;;;;12.65;6.00;;;;;;;12.21;62.45;101337.59;5071117;28;20031;-82
2023/05/13 01:03:58;;;;;;;14.15;6.10;;;;;;;12.26;62.25;101348.03;5070447;28;20086;-82
2023/05/13 01:06:57;;;;;;;11.93;6.53;;;;;;;12.14;62.64;101327.41;5068737;28;20054;-83
2023/05/13 01:09:52;;;;;;;16.58;6.65;;;;;;;12.12;62.48;101332.03;5069856;28;20074;-83
2023/05/13 01:12:28;;;;;;;28.25;7.10;;;;;;;12.14;62.65;101338.19;5051566;28;20138;-82
2023/05/13 01:15:10;;;;;;;26.70;6.72;;;;;;;12.15;62.99;101346.16;5070332;28;20166;-84
2023/05/13 01:17:52;;;;;;;15.43;6.88;;;;;;;12.10;63.30;101342.09;5070115;28;20032;-83
2023/05/13 01:20:22;;;;;;;18.55;7.07;;;;;;;12.02;63.51;101344.50;5070657;28;20020;-81
2023/05/13 01:22:47;;;;;;;13.68;7.40;;;;;;;12.00;63.55;101348.19;5070797;28;20044;-83
2023/05/13 01:25:13;;;;;;;17.70;8.05;;;;;;;12.00;63.41;101360.78;5071357;28;20036;-82
2023/05/13 01:27:39;;;;;;;16.80;7.35;;;;;;;11.87;64.49;101335.72;5070147;28;20100;-83
2023/05/13 01:30:06;;;;;;;18.20;7.05;;;;;;;11.96;63.43;101349.38;5070377;28;20028;-85
2023/05/13 01:32:33;;;;;;;17.83;9.27;;;;;;;11.96;63.59;101348.50;5051850;28;20041;-82
2023/05/13 01:35:00;;;;;;;12.38;7.10;;;;;;;11.97;63.92;101359.19;5070899;28;20024;-82
2023/05/13 01:37:27;;;;;;;16.98;6.63;;;;;;;11.98;63.83;101365.44;5070517;28;20024;-81
2023/05/13 01:39:53;;;;;;;22.63;7.05;;;;;;;11.84;63.85;101374.56;5070475;28;20131;-82
2023/05/13 01:42:18;;;;;;;35.30;8.77;;;;;;;11.71;64.09;101344.09;5071886;28;20103;-83
2023/05/13 01:44:44;;;;;;;17.63;7.10;;;;;;;11.75;63.90;101342.91;5071363;28;20056;-82
2023/05/13 01:47:09;;;;;;;24.58;7.72;;;;;;;11.80;63.81;101366.84;5073218;28;20395;-85
2023/05/13 01:49:35;;;;;;;15.27;7.28;;;;;;;11.82;64.00;101360.34;5076899;28;20020;-82
2023/05/13 01:52:00;;;;;;;14.30;7.40;;;;;;;11.86;63.75;101367.22;5073046;28;20016;-83
2023/05/13 01:54:26;;;;;;;24.00;7.80;;;;;;;11.65;64.01;101331.06;5071059;28;20043;-83
2023/05/13 01:56:51;;;;;;;12.48;7.07;;;;;;;11.72;64.14;101340.44;5070825;28;20067;-81
2023/05/13 01:59:17;;;;;;;49.22;9.77;;;;;;;11.84;64.17;101368.31;5071045;28;20116;-84
2023/05/13 02:01:44;;;;;;;25.35;7.40;;;;;;;11.69;63.92;101361.31;5071154;28;20434;-83
2023/05/13 02:04:10;;;;;;;23.42;8.35;;;;;;;11.55;63.90;101359.69;5053064;28;20411;-82
2023/05/13 02:06:35;;;;;;;18.50;7.75;;;;;;;11.43;64.12;101339.03;5069755;28;20060;-82
2023/05/13 02:09:01;;;;;;;26.08;8.77;;;;;;;11.64;64.72;101369.78;5072720;28;20057;-82
2023/05/13 02:11:26;;;;;;;12.57;7.55;;;;;;;11.62;64.80;101369.00;5075330;28;20016;-82
2023/05/13 02:13:52;;;;;;;13.65;7.80;;;;;;;11.59;64.67;101355.75;5073250;28;20035;-82
2023/05/13 02:16:17;;;;;;;21.23;8.20;;;;;;;11.60;64.50;101372.78;5073263;28;20055;-82
2023/05/13 02:18:43;;;;;;;16.95;8.02;;;;;;;11.60;64.31;101365.56;5073978;28;20642;-83
2023/05/13 02:21:08;;;;;;;15.70;8.50;;;;;;;11.64;65.00;101383.25;5074074;28;20020;-85
2023/05/13 02:23:34;;;;;;;16.73;8.70;;;;;;;11.67;64.78;101377.63;5074429;28;20404;-82
2023/05/13 02:25:59;;;;;;;15.07;9.27;;;;;;;11.55;65.13;101373.16;5074065;28;20021;-83
2023/05/13 02:28:25;;;;;;;21.73;10.07;;;;;;;11.56;64.92;101369.47;5073957;28;20029;-81
2023/05/13 02:30:51;;;;;;;22.02;8.55;;;;;;;11.54;65.53;101382.19;5073474;28;20020;-83
2023/05/13 02:33:16;;;;;;;25.48;9.52;;;;;;;11.45;65.74;101388.25;5073957;28;20488;-81
2023/05/13 02:35:42;;;;;;;20.15;9.60;;;;;;;11.39;66.29;101396.78;5075103;28;20052;-82
2023/05/13 02:38:10;;;;;;;22.13;9.18;;;;;;;11.34;66.60;101390.88;5075710;28;20419;-82
2023/05/13 02:40:36;;;;;;;23.58;9.43;;;;;;;11.30;66.60;101384.84;5075652;28;20094;-82
2023/05/13 02:43:02;;;;;;;19.48;8.48;;;;;;;11.26;66.78;101382.47;5081101;28;20431;-86
2023/05/13 02:45:27;;;;;;;17.80;7.20;;;;;;;11.29;66.90;101403.78;5081784;28;20123;-82
2023/05/13 02:47:52;;;;;;;19.08;8.82;;;;;;;11.22;66.34;101375.59;5088581;28;20028;-83
2023/05/13 02:50:18;;;;;;;24.80;8.73;;;;;;;11.22;66.38;101381.00;5078602;28;20032;-81
2023/05/13 02:52:43;;;;;;;13.80;8.85;;;;;;;11.26;66.21;101395.94;5074523;28;20020;-81
2023/05/13 02:55:09;;;;;;;19.95;8.63;;;;;;;11.26;66.09;101399.50;5073811;28;20031;-81
2023/05/13 02:57:36;;;;;;;13.05;8.25;;;;;;;11.14;65.91;101383.34;5073114;28;20029;-81
2023/05/13 03:00:03;;;;;;;25.20;8.60;;;;;;;11.16;66.37;101397.59;5075275;28;20032;-80
2023/05/13 03:02:29;;;;;;;19.30;8.02;;;;;;;11.27;66.34;101405.75;5074520;28;20059;-82
2023/05/13 03:04:55;;;;;;;26.77;8.45;;;;;;;11.26;65.84;101402.19;5081713;28;20046;-86
2023/05/13 03:07:21;;;;;;;19.60;7.80;;;;;;;11.30;66.14;101392.06;5076862;28;20020;-82
2023/05/13 03:09:46;;;;;;;19.25;7.13;;;;;;;11.35;65.76;101408.72;5074166;28;20043;-84
2023/05/13 03:12:12;;;;;;;16.17;8.35;;;;;;;11.33;65.58;101405.31;5071993;28;20052;-82
2023/05/13 03:14:38;;;;;;;30.10;8.95;;;;;;;11.32;65.35;101398.19;5072253;28;20039;-83
2023/05/13 03:17:05;;;;;;;14.52;8.05;;;;;;;11.28;64.89;101385.94;5073171;28;20064;-82
2023/05/13 03:19:31;;;;;;;21.27;8.30;;;;;;;11.34;65.62;101404.34;5072573;28;20111;-83
2023/05/13 03:21:57;;;;;;;19.30;8.73;;;;;;;11.23;65.53;101404.22;5072519;28;20104;-83
2023/05/13 03:24:23;;;;;;;20.02;8.27;;;;;;;11.12;65.84;101406.84;5072417;28;20131;-84
2023/05/13 03:26:48;;;;;;;15.63;8.63;;;;;;;11.33;65.78;101434.94;5072197;28;20024;-82
2023/05/13 03:29:14;;;;;;;16.80;8.05;;;;;;;11.24;65.59;101416.75;5072242;28;20028;-82
2023/05/13 03:31:39;;;;;;;29.40;9.32;;;;;;;11.35;65.57;101447.31;5072696;28;20020;-81
2023/05/13 03:34:05;;;;;;;22.88;9.27;;;;;;;11.34;64.99;101433.97;5072546;28;20028;-81
2023/05/13 03:36:31;;;;;;;18.17;7.80;;;;;;;11.33;65.36;101432.22;5073481;28;20021;-82
2023/05/13 03:38:56;;;;;;;19.10;8.50;;;;;;;11.38;64.97;101435.44;5073079;28;20453;-81
2023/05/13 03:41:22;;;;;;;26.10;9.20;;;;;;;11.33;64.60;101426.84;5075277;28;20025;-82
2023/05/13 03:43:47;;;;;;;17.92;8.60;;;;;;;11.31;64.43;101428.81;5078787;28;20032;-82
2023/05/13 03:46:13;;;;;;;20.35;10.02;;;;;;;11.47;63.98;101445.56;5077654;28;20020;-84
2023/05/13 03:48:38;;;;;;;27.95;9.80;;;;;;;11.36;63.39;101424.81;5072450;28;20033;-82
2023/05/13 03:51:04;;;;;;;34.72;11.77;;;;;;;11.32;63.27;101443.97;5072149;28;20035;-83
2023/05/13 03:53:29;;;;;;;17.63;11.10;;;;;;;11.21;63.54;101414.25;5072592;28;20518;-82
2023/05/13 03:55:55;;;;;;;39.97;13.60;;;;;;;11.21;63.29;101411.56;5070055;28;20028;-82
2023/05/13 03:58:21;;;;;;;29.95;14.15;;;;;;;11.29;62.70;101428.91;5071625;28;20028;-85
2023/05/13 04:00:47;;;;;;;29.17;13.95;;;;;;;11.28;62.92;101419.09;5071101;28;20027;-81
2023/05/13 04:03:14;;;;;;;36.67;13.93;;;;;;;11.39;62.98;101434.50;5070531;28;20481;-83
2023/05/13 04:05:40;;;;;;;30.33;14.98;;;;;;;11.47;62.59;101414.09;5071236;28;20055;-82
2023/05/13 04:08:05;;;;;;;35.17;15.05;;;;;;;11.59;62.66;101428.50;5071184;28;20056;-82
2023/05/13 04:10:31;;;;;;;27.77;13.85;;;;;;;11.60;62.57;101432.94;5070403;28;20108;-84
2023/05/13 04:12:56;;;;;;;55.33;13.20;;;;;;;11.63;62.73;101419.22;5071451;28;20029;-83
2023/05/13 04:15:22;;;;;;;33.55;15.70;;;;;;;11.77;62.56;101416.41;5071542;28;20021;-82
2023/05/13 04:17:47;;;;;;;34.22;15.25;;;;;;;11.87;61.98;101428.25;5071997;28;20025;-85
2023/05/13 04:20:13;;;;;;;37.55;17.00;;;;;;;11.92;62.17;101425.22;5071044;28;20016;-83
2023/05/13 04:22:38;;;;;;;37.25;17.25;;;;;;;12.07;61.61;101423.22;5070569;28;20044;-81
2023/05/13 04:25:04;;;;;;;57.83;19.42;;;;;;;12.12;61.44;101424.56;5071614;28;20036;-82
2023/05/13 04:27:30;;;;;;;50.45;21.42;;;;;;;12.25;61.37;101433.47;5071750;28;20032;-82
2023/05/13 04:29:55;;;;;;;60.08;22.70;;;;;;;12.37;60.65;101431.69;5071852;28;20860;-82
2023/05/13 04:32:21;;;;;;;53.28;22.17;;;;;;;12.44;60.32;101423.00;5075020;28;20051;-82
2023/05/13 04:34:47;;;;;;;53.67;22.33;;;;;;;12.51;60.41;101418.84;5073910;28;20360;-82
2023/05/13 04:37:13;;;;;;;52.15;24.25;;;;;;;12.64;59.68;101432.25;5073765;28;20040;-83
2023/05/13 04:39:38;;;;;;;55.60;23.60;;;;;;;12.65;59.54;101412.41;5072439;28;20048;-83
2023/05/13 04:42:04;;;;;;;46.90;24.48;;;;;;;12.79;58.51;101422.97;5071454;28;20039;-81
2023/05/13 04:44:31;;;;;;;60.63;25.95;;;;;;;12.96;58.69;101430.63;5070876;28;20032;-79
2023/05/13 04:46:56;;;;;;;48.25;22.73;;;;;;;12.97;58.25;101428.75;5072719;28;20024;-82
2023/05/13 04:49:22;;;;;;;53.28;23.98;;;;;;;13.00;57.76;101429.38;5079309;28;20524;-83
2023/05/13 04:51:47;;;;;;;48.17;25.08;;;;;;;13.03;57.89;101430.97;5069799;28;20029;-80
2023/05/13 04:54:13;;;;;;;40.92;24.27;;;;;;;13.17;57.65;101443.44;5071088;28;20470;-85
2023/05/13 04:56:38;;;;;;;53.85;25.35;;;;;;;13.18;57.23;101428.97;5069747;28;20059;-79
2023/05/13 04:59:04;;;;;;;69.32;25.42;;;;;;;13.23;56.52;101434.84;5071093;28;20057;-80
2023/05/13 05:01:29;;;;;;;45.17;24.30;;;;;;;13.13;56.54;101404.13;5077334;28;20032;-84
2023/05/13 05:03:57;;;;;;;48.63;24.95;;;;;;;13.36;56.30;101438.31;5068656;28;20036;-83
2023/05/13 05:06:22;;;;;;;42.20;24.42;;;;;;;13.47;55.79;101446.38;5067697;28;20028;-80
2023/05/13 05:08:48;;;;;;;56.08;23.75;;;;;;;13.59;55.41;101453.50;5067871;28;20858;-81
2023/05/13 05:11:13;;;;;;;43.97;22.85;;;;;;;13.58;55.78;101449.94;5069284;28;20457;-82
2023/05/13 05:13:39;;;;;;;54.58;24.70;;;;;;;13.58;55.50;101439.13;5069435;28;20025;-82
2023/05/13 05:16:04;;;;;;;48.78;26.23;;;;;;;13.80;55.21;101446.34;5085874;28;20050;-81
2023/05/13 05:18:30;;;;;;;61.85;26.58;;;;;;;13.84;55.01;101445.13;5071942;28;20079;-81
2023/05/13 05:20:55;;;;;;;58.95;27.38;;;;;;;13.92;55.39;101442.66;5072375;28;20058;-81
2023/05/13 05:23:21;;;;;;;46.75;26.65;;;;;;;14.05;54.79;101443.34;5079038;28;20028;-83
2023/05/13 05:25:46;;;;;;;49.08;26.25;;;;;;;14.22;54.83;101452.75;5070613;28;20039;-83
2023/05/13 05:28:12;;;;;;;47.47;25.63;;;;;;;14.32;54.44;101455.56;5071302;28;20119;-85
2023/05/13 05:30:38;;;;;;;55.70;25.65;;;;;;;14.43;54.71;101452.88;5071036;28;20028;-85
2023/05/13 05:33:07;;;;;;;48.00;24.55;;;;;;;14.53;54.38;101454.66;5071945;28;20039;-82
2023/05/13 05:35:35;;;;;;;53.83;23.42;;;;;;;14.68;53.97;101455.19;5080309;28;20048;-82
2023/05/13 05:38:02;;;;;;;58.55;22.33;;;;;;;14.82;53.61;101454.88;5077535;28;20143;-83
2023/05/13 05:40:28;;;;;;;46.08;22.27;;;;;;;15.00;52.87;101452.41;5069321;28;20074;-85
2023/05/13 05:42:53;;;;;;;34.50;19.95;;;;;;;15.08;52.83;101450.75;5068199;28;20102;-83
2023/05/13 05:45:19;;;;;;;45.78;20.75;;;;;;;15.33;52.74;101462.16;5068607;28;20020;-83
2023/05/13 05:47:45;;;;;;;50.63;20.90;;;;;;;15.41;52.09;101457.78;5068987;28;20186;-83
2023/05/13 05:50:10;;;;;;;44.78;18.65;;;;;;;15.52;52.08;101451.44;5068926;28;20020;-85
2023/05/13 05:52:35;;;;;;;56.10;20.90;;;;;;;15.73;51.28;101450.38;5068302;28;20063;-80
2023/05/13 05:55:02;;;;;;;201.68;31.02;;;;;;;15.80;51.59;101450.69;5068802;28;20017;-81
2023/05/13 05:57:27;;;;;;;47.50;18.88;;;;;;;15.90;51.70;101454.28;5068029;28;20106;-84
2023/05/13 05:59:53;;;;;;;44.72;18.10;;;;;;;16.10;50.55;101466.03;5069486;28;20387;-79
2023/05/13 06:02:18;;;;;;;45.72;19.08;;;;;;;16.12;49.84;101456.75;5072380;28;20058;-85
2023/05/13 06:04:44;;;;;;;36.08;18.45;;;;;;;16.34;49.73;101471.94;5074176;28;20467;-85
2023/05/13 06:07:09;;;;;;;47.97;17.13;;;;;;;16.43;49.17;101456.63;5070526;28;20029;-84
2023/05/13 06:09:35;;;;;;;37.92;15.02;;;;;;;16.51;48.86;101443.22;5069486;28;20028;-81
2023/05/13 06:12:00;;;;;;;30.75;15.90;;;;;;;16.69;47.61;101468.69;5072928;28;20028;-83
2023/05/13 06:14:26;;;;;;;54.88;17.33;;;;;;;16.71;47.69;101453.09;5068220;28;20037;-85
2023/05/13 06:16:52;;;;;;;43.17;14.30;;;;;;;17.01;47.71;101468.34;5073108;28;20513;-81
2023/05/13 06:19:17;;;;;;;33.53;14.02;;;;;;;17.00;46.54;101440.31;5069162;28;20106;-82
2023/05/13 06:21:43;;;;;;;44.13;14.95;;;;;;;17.24;46.50;101459.75;5069579;28;20032;-83
2023/05/13 06:24:09;;;;;;;38.47;15.70;;;;;;;17.27;45.75;101448.56;5070791;28;20020;-83
2023/05/13 06:26:35;;;;;;;32.60;14.20;;;;;;;17.36;45.31;101431.38;5070254;28;20025;-82
2023/05/13 06:29:00;;;;;;;21.92;10.57;;;;;;;17.48;42.91;101452.91;5071530;28;20025;-80
2023/05/13 06:31:26;;;;;;;32.83;10.20;;;;;;;17.31;42.49;101449.97;5071201;28;20055;-81
2023/05/13 06:33:51;;;;;;;23.35;10.55;;;;;;;17.48;42.58;101436.59;5071134;28;20041;-81
2023/05/13 06:36:17;;;;;;;26.77;9.35;;;;;;;17.78;41.87;101452.66;5068194;28;20028;-83
2023/05/13 06:38:42;;;;;;;28.98;10.65;;;;;;;17.84;41.10;101430.28;5068308;28;20513;-82
2023/05/13 06:41:11;;;;;;;23.15;10.00;;;;;;;18.02;41.04;101428.47;5068820;28;20028;-82
2023/05/13 06:43:37;;;;;;;18.40;9.88;;;;;;;18.04;40.66;101403.81;5070932;28;20059;-82
2023/05/13 06:46:03;;;;;;;23.52;10.43;;;;;;;18.20;40.00;101432.06;5068636;28;20539;-84
2023/05/13 06:48:28;;;;;;;20.50;9.77;;;;;;;18.44;40.25;101454.09;5069341;28;20115;-82
2023/05/13 06:50:53;;;;;;;24.67;8.15;;;;;;;18.44;39.81;101454.09;5067226;28;20020;-79
2023/05/13 06:53:19;;;;;;;37.83;8.90;;;;;;;18.62;40.08;101466.91;5068018;28;20381;-78
2023/05/13 06:55:45;;;;;;;20.58;6.03;;;;;;;18.42;35.91;101434.34;5067427;28;20029;-83
2023/05/13 06:58:10;;;;;;;26.80;5.80;;;;;;;18.43;35.40;101460.56;5065543;28;20028;-78
2023/05/13 07:00:37;;;;;;;16.10;4.95;;;;;;;18.32;35.55;101447.16;5066783;28;20107;-82
2023/05/13 07:03:03;;;;;;;19.20;4.78;;;;;;;18.40;34.83;101458.16;5068840;28;20116;-86
2023/05/13 07:05:29;;;;;;;21.80;5.00;;;;;;;18.44;35.34;101459.53;5072370;28;20021;-83
2023/05/13 07:07:55;;;;;;;40.20;6.80;;;;;;;18.59;34.74;101470.78;5054783;28;20024;-86
2023/05/13 07:10:20;;;;;;;37.10;9.27;;;;;;;18.60;34.96;101449.84;5071981;28;20791;-85
2023/05/13 07:12:45;;;;;;;24.23;5.57;;;;;;;18.73;34.08;101467.50;5072474;28;20029;-85
2023/05/13 07:15:11;;;;;;;10.20;4.53;;;;;;;18.65;33.95;101458.41;5072448;28;20151;-86
2023/05/13 07:17:36;;;;;;;33.47;7.18;;;;;;;18.82;33.78;101469.28;5075040;28;20029;-84
2023/05/13 07:20:02;;;;;;;12.57;4.70;;;;;;;18.77;33.25;101452.56;5078074;28;20455;-86
2023/05/13 07:22:27;;;;;;;26.42;5.18;;;;;;;18.85;33.66;101466.25;5075115;28;20356;-85
2023/05/13 07:24:53;;;;;;;21.15;4.80;;;;;;;18.97;33.03;101469.56;5080318;28;20092;-84
2023/05/13 07:27:19;;;;;;;11.48;3.60;;;;;;;18.91;32.21;101453.84;5090150;28;20028;-87
2023/05/13 07:29:44;;;;;;;13.77;3.78;;;;;;;19.10;32.69;101459.13;5088345;28;20064;-85
2023/05/13 07:32:10;;;;;;;25.52;4.90;;;;;;;19.10;32.68;101455.53;5072303;28;20025;-86
2023/05/13 07:34:36;;;;;;;11.75;3.63;;;;;;;18.92;32.11;101445.53;5072491;28;20056;-84
2023/05/13 07:37:02;;;;;;;11.48;3.45;;;;;;;18.95;31.98;101453.41;5073161;28;20039;-85
2023/05/13 07:39:28;;;;;;;17.00;4.07;;;;;;;18.87;32.93;101452.44;5076339;28;20413;-85
2023/05/13 07:41:53;;;;;;;11.70;3.83;;;;;;;18.82;33.58;101458.41;5078309;28;20016;-86
2023/05/13 07:44:19;;;;;;;17.92;4.35;;;;;;;18.77;33.52;101449.84;5072677;28;20027;-86
2023/05/13 07:46:44;;;;;;;14.13;3.97;;;;;;;18.69;33.94;101440.72;5072891;28;20052;-84
2023/05/13 07:49:10;;;;;;;21.25;3.97;;;;;;;18.73;34.33;101470.25;5073287;28;20043;-86
2023/05/13 07:51:35;;;;;;;17.90;3.75;;;;;;;18.88;34.33;101465.06;5072509;28;20024;-87
2023/05/13 07:54:01;;;;;;;16.40;4.63;;;;;;;18.91;34.24;101440.22;5072165;28;20511;-86
2023/05/13 07:56:26;;;;;;;5.20;3.45;;;;;;;18.95;34.24;101444.34;5072163;28;20036;-85
2023/05/13 07:58:52;;;;;;;17.58;4.03;;;;;;;19.16;34.32;101443.97;5072164;28;20025;-86
2023/05/13 08:01:17;;;;;;;10.02;3.72;;;;;;;19.35;33.97;101443.78;5072584;28;20081;-85
2023/05/13 08:03:43;;;;;;;20.60;3.80;;;;;;;19.46;33.16;101427.13;5072130;28;20104;-86
2023/05/13 08:06:08;;;;;;;24.92;3.92;;;;;;;19.77;33.20;101457.47;5071745;28;20399;-85
2023/05/13 08:08:34;;;;;;;12.77;3.47;;;;;;;19.86;31.81;101448.31;5073650;28;20029;-86
2023/05/13 08:10:59;;;;;;;30.75;5.03;;;;;;;19.83;31.57;101434.97;5075815;28;20029;-86
2023/05/13 08:13:25;;;;;;;18.33;3.28;;;;;;;19.88;30.96;101416.22;5073285;28;20032;-84
2023/05/13 08:15:51;;;;;;;8.73;2.88;;;;;;;19.85;30.96;101416.56;5074464;28;20020;-85
2023/05/13 08:18:17;;;;;;;116.38;17.50;;;;;;;20.03;31.91;101422.75;5073669;28;20418;-85
2023/05/13 08:20:42;;;;;;;14.52;3.83;;;;;;;19.97;32.00;101407.88;5074608;28;20119;-86
2023/05/13 08:23:08;;;;;;;13.82;3.35;;;;;;;20.12;31.97;101424.47;5090956;28;20063;-86
2023/05/13 08:25:33;;;;;;;10.27;3.17;;;;;;;20.08;31.51;101412.19;5091002;28;20019;-88
2023/05/13 08:27:58;;;;;;;15.10;4.43;;;;;;;20.20;32.54;101416.31;5075276;28;20112;-85
2023/05/13 08:30:24;;;;;;;13.10;2.85;;;;;;;20.18;32.48;101429.31;5072816;28;20028;-87
2023/05/13 08:32:49;;;;;;;18.02;3.65;;;;;;;20.18;33.21;101418.38;5071019;28;20028;-85
2023/05/13 08:35:15;;;;;;;14.98;3.15;;;;;;;20.17;32.92;101402.13;5070797;28;20016;-85
2023/05/13 08:37:40;;;;;;;10.02;3.00;;;;;;;20.40;32.07;101428.66;5070508;28;20455;-88
2023/05/13 08:40:07;;;;;;;5.32;2.90;;;;;;;20.36;31.77;101416.38;5070253;28;20028;-86
2023/05/13 08:42:35;;;;;;;5.95;2.78;;;;;;;20.37;30.92;101434.47;5071116;28;20070;-86
2023/05/13 08:45:04;;;;;;;15.90;3.38;;;;;;;20.55;31.32;101426.97;5074865;28;20025;-85
2023/05/13 08:47:54;;;;;;;8.40;3.25;;;;;;;20.65;31.36;101429.53;5070595;28;20475;-84
2023/05/13 08:50:21;;;;;;;11.27;2.97;;;;;;;20.68;31.48;101414.66;5069582;28;20060;-85
2023/05/13 08:52:49;;;;;;;15.70;3.67;;;;;;;20.43;30.30;101383.75;5070890;28;20032;-86
2023/05/13 08:55:15;;;;;;;24.58;3.78;;;;;;;20.70;31.21;101429.03;5076370;28;20471;-86
2023/05/13 08:57:40;;;;;;;11.73;3.25;;;;;;;20.58;31.21;101418.44;5075191;28;20036;-84
2023/05/13 09:00:07;;;;;;;15.63;3.22;;;;;;;20.82;30.45;101425.81;5083279;28;20036;-87
2023/05/13 09:02:32;;;;;;;14.25;3.80;;;;;;;20.76;29.79;101399.16;5077737;28;20041;-84
2023/05/13 09:05:05;;;;;;;146.98;17.38;;;;;;;20.67;28.64;101429.38;5076416;28;20032;-86
2023/05/13 09:07:31;;;;;;;9.57;3.92;;;;;;;20.60;29.83;101432.81;5076401;28;20024;-86
2023/05/13 09:09:58;;;;;;;13.93;3.03;;;;;;;20.30;28.87;101435.31;5083549;28;20028;-85
2023/05/13 09:12:42;;;;;;;20.35;3.58;;;;;;;20.21;30.04;101428.97;5085553;28;20039;-87
2023/05/13 09:15:10;;;;;;;20.80;3.85;;;;;;;19.84;30.25;101437.56;5086406;28;20112;-86
2023/05/13 09:17:41;;;;;;;9.25;3.58;;;;;;;19.78;31.16;101421.84;5079254;28;20032;-86
2023/05/13 09:20:10;;;;;;;36.63;4.40;;;;;;;19.69;31.57;101405.59;5091830;28;20060;-87
2023/05/13 09:22:39;;;;;;;72.22;7.57;;;;;;;20.05;32.30;101448.03;5094340;28;20033;-87
2023/05/13 09:25:10;;;;;;;6.82;3.03;;;;;;;20.03;31.99;101422.75;5075040;28;20024;-86
2023/05/13 09:27:37;;;;;;;8.48;3.55;;;;;;;20.34;31.19;101415.69;5069463;28;20024;-86
2023/05/13 09:30:03;;;;;;;6.72;2.58;;;;;;;20.11;30.35;101406.41;5070021;28;20662;-86
2023/05/13 09:32:29;;;;;;;19.10;3.33;;;;;;;20.53;30.26;101444.56;5070135;28;20032;-85
2023/05/13 09:34:54;;;;;;;8.05;2.70;;;;;;;20.43;30.24;101425.59;5069897;28;20032;-86
2023/05/13 09:37:22;;;;;;;15.93;4.03;;;;;;;20.63;29.37;101424.25;5074661;28;20050;-83
2023/05/13 09:39:51;;;;;;;15.30;3.97;;;;;;;20.42;29.05;101442.19;5074379;28;20139;-86
2023/05/13 09:42:17;;;;;;;17.27;2.92;;;;;;;20.41;29.11;101430.38;5070558;28;20029;-86
2023/05/13 09:44:44;;;;;;;10.27;3.45;;;;;;;20.39;29.33;101432.44;5070302;28;20552;-86
2023/05/13 09:47:13;;;;;;;10.50;3.13;;;;;;;20.58;28.77;101440.28;5070635;28;20025;-87
2023/05/13 09:49:40;;;;;;;26.50;3.78;;;;;;;20.46;28.97;101429.84;5070438;28;20055;-87
2023/05/13 09:52:10;;;;;;;16.35;3.83;;;;;;;20.62;29.07;101435.34;5070739;28;20028;-86
2023/05/13 09:54:35;;;;;;;13.82;3.83;;;;;;;20.84;28.91;101437.41;5070112;28;20032;-86
2023/05/13 09:57:01;;;;;;;23.15;4.32;;;;;;;20.96;28.99;101440.63;5071988;28;20434;-86
2023/05/13 09:59:31;;;;;;;10.27;3.15;;;;;;;20.67;28.69;101434.84;5071302;28;20025;-84
2023/05/13 10:02:04;;;;;;;15.65;3.10;;;;;;;20.63;28.95;101432.47;5071301;28;20431;-86
2023/05/13 10:04:30;;;;;;;16.35;9.30;;;;;;;20.39;29.14;101435.19;5070996;28;20020;-85
2023/05/13 10:06:57;;;;;;;28.95;5.05;;;;;;;20.60;29.42;101441.00;5070878;28;20040;-86
2023/05/13 10:09:25;;;;;;;16.52;3.30;;;;;;;20.59;28.39;101439.28;5070981;28;20507;-86
2023/05/13 10:11:52;;;;;;;23.00;3.28;;;;;;;20.71;28.85;101430.72;5071487;28;20029;-83
2023/05/13 10:14:18;;;;;;;7.57;3.80;;;;;;;20.63;30.14;101420.66;5069946;28;20029;-83
2023/05/13 10:16:46;;;;;;;28.10;5.97;;;;;;;20.64;29.92;101425.09;5079576;28;20055;-84
2023/05/13 10:19:12;;;;;;;49.90;10.05;;;;;;;20.55;30.84;101410.56;5088042;28;20105;-81
2023/05/13 10:21:38;;;;;;;8.10;2.53;;;;;;;20.62;30.15;101435.34;5076463;28;20074;-83
2023/05/13 10:24:05;;;;;;;10.63;4.78;;;;;;;20.58;30.23;101423.91;5070468;28;20044;-85
2023/05/13 10:26:31;;;;;;;8.63;2.60;;;;;;;20.52;30.37;101429.19;5069635;28;20021;-92
2023/05/13 10:28:58;;;;;;;19.33;3.75;;;;;;;20.67;30.66;101430.25;5069634;28;20407;-84
2023/05/13 10:31:24;;;;;;;14.82;4.07;;;;;;;20.83;30.31;101415.69;5072319;28;20028;-90
2023/05/13 10:33:52;;;;;;;6.55;2.83;;;;;;;20.88;30.66;101411.44;5075046;28;20036;-90
2023/05/13 10:36:39;;;;;;;27.95;5.57;;;;;;;21.09;30.31;101403.56;5075871;28;20028;-86
2023/05/13 10:39:07;;;;;;;14.70;3.45;;;;;;;21.15;30.73;101412.97;5074143;28;20048;-88
2023/05/13 10:42:06;;;;;;;19.98;3.70;;;;;;;21.10;30.65;101409.88;5074433;28;20036;-88
2023/05/13 10:44:33;;;;;;;15.65;3.50;;;;;;;21.31;30.71;101395.66;5075652;28;20063;-87
2023/05/13 10:46:58;;;;;;;13.30;3.38;;;;;;;21.41;30.34;101396.28;5080293;28;20031;-89
2023/05/13 10:49:32;;;;;;;13.52;4.05;;;;;;;21.17;30.83;101409.00;5081521;28;20033;-88
2023/05/13 10:52:03;;;;;;;3.53;2.28;;;;;;;21.09;31.08;101402.72;5077711;28;20025;-88
2023/05/13 10:54:37;;;;;;;8.18;3.58;;;;;;;21.07;31.62;101388.31;5079838;28;20017;-87
2023/05/13 10:57:03;;;;;;;15.18;3.03;;;;;;;21.29;30.88;101398.53;5096748;28;20024;-87
2023/05/13 10:59:29;;;;;;;44.92;6.40;;;;;;;21.14;31.18;101384.75;5097229;28;20035;-86
2023/05/13 11:01:55;;;;;;;21.50;3.50;;;;;;;21.23;30.89;101403.84;5097992;28;20043;-85
2023/05/13 11:04:21;;;;;;;44.80;5.25;;;;;;;21.21;31.00;101405.94;5097458;28;20020;-88
2023/05/13 11:06:48;;;;;;;9.05;2.75;;;;;;;21.19;30.26;101386.09;5097868;28;20012;-88
2023/05/13 11:09:36;;;;;;;12.45;3.15;;;;;;;21.09;30.41;101402.72;5098918;28;20028;-86
2023/05/13 11:12:02;;;;;;;10.05;2.80;;;;;;;21.05;31.66;101406.78;5098019;28;20039;-87